Weather at Taiwan Taoyuan International Airport

Public forecast

Using degrees Celsius for public forecast. Weather courtesy of forecast.io.

Current aviation weather report (METAR) for Taiwan Taoyuan International Airport

Retrieved 2021/07/24 00:38 UTC (21 minutes ago):

RCTP 240038Z 34017G27KT 2200 +SHRA SCT008 BKN016 BKN025 26/24 Q0994 WS R05L TEMPO 5000 SHRA RMK R05 A2938

Aviation forecast (TAF) for Taiwan Taoyuan International Airport

Retrieved 2021-07-24 00:00 UTC (59 minutes ago):

TAF RCTP 232300Z 2400/2506 30015KT 6000 FEW010 BKN020 TEMPO 2400/2406 31018G28KT 2200 SHRA SCT005 BKN011 FEW013CB BKN025 BECMG 2406/2408 26012KT FEW015 BKN032 TEMPO 2408/2414 24017KT 3000 SHRA FEW010 BKN014 FEW015CB BKN025 BECMG 2414/2416 24013KT TEMPO 2416/2420 23017G27KT 2200 SHRA SCT005 BKN012